Time;durP1;ratioP1;P1;durP2;ratioP2;P2;SDS_P1;SDS_P2;PMS_P1;PMS_P2;Temp;Humidity;BMP_temperature;BMP_pressure;BME280_temperature;BME280_humidity;BME280_pressure;Samples;Min_cycle;Max_cycle;Signal;HPM_P1;HPM_P2
2021/04/01 00:00:40;;;;;;;58.90;29.67;;;;;;;;;;6102105;29;20112;-74
2021/04/01 00:03:45;;;;;;;58.85;29.10;;;;;;;;;;6095080;29;20072;-74
2021/04/01 00:06:46;;;;;;;57.58;29.58;;;;;;;;;;6096150;29;20055;-74
2021/04/01 00:09:47;;;;;;;53.28;28.83;;;;;;;;;;6107800;29;20100;-75
2021/04/01 00:12:48;;;;;;;59.08;29.92;;;;;;;;;;6104945;29;20059;-76
2021/04/01 00:15:51;;;;;;;56.10;28.13;;;;;;;;;;6100639;29;20384;-74
2021/04/01 00:18:53;;;;;;;55.75;28.00;;;;;;;;;;6102672;29;20062;-74
2021/04/01 00:21:54;;;;;;;59.63;28.35;;;;;;;;;;6107996;29;20107;-74
2021/04/01 00:24:55;;;;;;;51.78;28.45;;;;;;;;;;6102205;29;20087;-74
2021/04/01 00:27:56;;;;;;;52.20;28.13;;;;;;;;;;6091379;29;20062;-74
2021/04/01 00:30:57;;;;;;;55.60;27.80;;;;;;;;;;6099447;29;20071;-74
2021/04/01 00:33:59;;;;;;;55.42;28.00;;;;;;;;;;6100995;29;20052;-74
2021/04/01 00:37:00;;;;;;;56.97;28.90;;;;;;;;;;6099381;29;20453;-74
2021/04/01 00:40:02;;;;;;;57.70;29.17;;;;;;;;;;6108673;29;20107;-74
2021/04/01 00:43:03;;;;;;;55.47;28.85;;;;;;;;;;6104791;29;20060;-73
2021/04/01 00:46:04;;;;;;;50.50;27.98;;;;;;;;;;6092056;29;20072;-74
2021/04/01 00:49:06;;;;;;;63.80;29.05;;;;;;;;;;6100334;29;20463;-74
2021/04/01 00:52:08;;;;;;;51.75;28.83;;;;;;;;;;6097772;29;20044;-74
2021/04/01 00:55:10;;;;;;;56.75;27.58;;;;;;;;;;6101025;29;20079;-74
2021/04/01 00:58:12;;;;;;;58.03;29.17;;;;;;;;;;6098324;29;20041;-74
2021/04/01 01:04:33;;;;;;;53.80;27.10;;;;;;;;;;6150300;28;20101;-71
2021/04/01 01:07:35;;;;;;;55.78;27.77;;;;;;;;;;6153007;28;20107;-71
2021/04/01 01:10:36;;;;;;;49.40;25.70;;;;;;;;;;6153014;28;20134;-71
2021/04/01 01:13:37;;;;;;;51.05;27.50;;;;;;;;;;6153709;29;20059;-71
2021/04/01 01:16:38;;;;;;;52.65;27.20;;;;;;;;;;6152968;29;20078;-71
2021/04/01 01:19:41;;;;;;;54.80;27.50;;;;;;;;;;6146698;28;20182;-71
2021/04/01 01:22:42;;;;;;;58.33;27.80;;;;;;;;;;6145229;28;20058;-71
2021/04/01 01:25:45;;;;;;;52.80;28.02;;;;;;;;;;6138239;28;20051;-71
2021/04/01 01:28:46;;;;;;;53.40;27.30;;;;;;;;;;6135591;28;20098;-71
2021/04/01 01:31:49;;;;;;;55.35;26.52;;;;;;;;;;6134849;28;20086;-71
2021/04/01 01:34:50;;;;;;;57.10;27.45;;;;;;;;;;6133503;28;20052;-71
2021/04/01 01:37:52;;;;;;;58.90;28.35;;;;;;;;;;6133193;28;20068;-71
2021/04/01 01:40:54;;;;;;;52.25;28.55;;;;;;;;;;6141198;28;20640;-71
2021/04/01 01:43:57;;;;;;;56.35;30.13;;;;;;;;;;6134783;28;20074;-71
2021/04/01 01:46:58;;;;;;;54.40;28.40;;;;;;;;;;6138706;28;20149;-71
2021/04/01 01:49:59;;;;;;;51.83;28.85;;;;;;;;;;6133609;28;20138;-71
2021/04/01 01:53:01;;;;;;;57.25;29.17;;;;;;;;;;6131246;28;20130;-71
2021/04/01 01:56:03;;;;;;;53.10;29.80;;;;;;;;;;6133320;28;20059;-71
2021/04/01 01:59:05;;;;;;;55.67;29.48;;;;;;;;;;6136170;28;20071;-71
2021/04/01 02:02:06;;;;;;;57.45;30.30;;;;;;;;;;6132218;28;20075;-71
2021/04/01 02:05:08;;;;;;;57.58;30.10;;;;;;;;;;6136080;28;20523;-71
2021/04/01 02:08:10;;;;;;;51.13;28.60;;;;;;;;;;6128101;28;20126;-71
2021/04/01 02:11:13;;;;;;;51.90;29.63;;;;;;;;;;6138711;28;20043;-71
2021/04/01 02:14:14;;;;;;;56.67;29.77;;;;;;;;;;6138511;28;20130;-71
2021/04/01 02:17:19;;;;;;;51.85;28.95;;;;;;;;;;6138296;28;20067;-71
2021/04/01 02:20:21;;;;;;;54.35;28.67;;;;;;;;;;6139937;28;20058;-71
2021/04/01 02:23:24;;;;;;;56.50;29.27;;;;;;;;;;6140048;28;20070;-71
2021/04/01 02:26:26;;;;;;;53.65;28.98;;;;;;;;;;6133888;28;20047;-71
2021/04/01 02:29:27;;;;;;;57.70;29.55;;;;;;;;;;6134300;28;20074;-71
2021/04/01 02:32:28;;;;;;;54.60;29.45;;;;;;;;;;6140240;28;20494;-72
2021/04/01 02:35:29;;;;;;;56.78;30.67;;;;;;;;;;6125558;28;20570;-71
2021/04/01 02:38:30;;;;;;;46.05;27.92;;;;;;;;;;6132709;28;20135;-71
2021/04/01 02:41:32;;;;;;;50.95;29.75;;;;;;;;;;6139446;28;20121;-71
2021/04/01 02:44:33;;;;;;;53.45;30.00;;;;;;;;;;6139248;28;20635;-71
2021/04/01 02:47:34;;;;;;;50.28;28.55;;;;;;;;;;6138476;28;20202;-71
2021/04/01 02:50:35;;;;;;;54.05;29.42;;;;;;;;;;6131491;28;20051;-71
2021/04/01 02:53:36;;;;;;;50.70;28.27;;;;;;;;;;6133282;28;20047;-71
2021/04/01 02:56:38;;;;;;;52.63;29.95;;;;;;;;;;6131162;28;20187;-71
2021/04/01 02:59:39;;;;;;;58.17;29.58;;;;;;;;;;6137688;28;20106;-71
2021/04/01 03:02:43;;;;;;;50.28;29.58;;;;;;;;;;6122164;28;20058;-71
2021/04/01 03:05:44;;;;;;;53.38;29.73;;;;;;;;;;6134260;28;20050;-71
2021/04/01 03:08:45;;;;;;;50.13;29.65;;;;;;;;;;6127716;28;20048;-71
2021/04/01 03:11:47;;;;;;;55.47;29.05;;;;;;;;;;6133309;28;20079;-71
2021/04/01 03:14:48;;;;;;;52.17;28.27;;;;;;;;;;6132146;28;20090;-71
2021/04/01 03:17:49;;;;;;;54.13;29.85;;;;;;;;;;6134085;28;20155;-70
2021/04/01 03:20:50;;;;;;;53.75;29.80;;;;;;;;;;6130034;28;20068;-71
2021/04/01 03:23:51;;;;;;;47.67;28.17;;;;;;;;;;6132185;28;20091;-71
2021/04/01 03:26:53;;;;;;;48.88;27.90;;;;;;;;;;6133079;28;20086;-71
2021/04/01 03:30:05;;;;;;;52.10;28.98;;;;;;;;;;6134564;28;21325;-72
2021/04/01 03:33:06;;;;;;;56.78;28.70;;;;;;;;;;6140037;28;20406;-71
2021/04/01 03:36:07;;;;;;;54.13;28.17;;;;;;;;;;6145409;28;20171;-71
2021/04/01 03:39:08;;;;;;;50.70;29.05;;;;;;;;;;6139314;28;20070;-71
2021/04/01 03:42:10;;;;;;;52.22;28.50;;;;;;;;;;6134552;28;20114;-71
2021/04/01 03:45:13;;;;;;;55.65;29.65;;;;;;;;;;6137541;28;20163;-71
2021/04/01 03:48:14;;;;;;;55.08;29.83;;;;;;;;;;6130498;28;20051;-71
2021/04/01 03:51:15;;;;;;;48.33;28.17;;;;;;;;;;6135148;28;20139;-71
2021/04/01 03:54:16;;;;;;;53.08;28.38;;;;;;;;;;6138941;28;20058;-71
2021/04/01 03:57:18;;;;;;;52.50;28.85;;;;;;;;;;6134126;28;20084;-71
2021/04/01 04:00:21;;;;;;;53.00;27.63;;;;;;;;;;6139265;28;20055;-71
2021/04/01 04:03:33;;;;;;;53.43;27.37;;;;;;;;;;6130353;28;20051;-71
2021/04/01 04:10:09;;;;;;;51.53;28.23;;;;;;;;;;6103066;28;20069;-71
2021/04/01 04:13:21;;;;;;;57.47;28.83;;;;;;;;;;6139873;28;20474;-71
2021/04/01 04:16:22;;;;;;;54.55;29.58;;;;;;;;;;6137813;28;20466;-71
2021/04/01 04:19:23;;;;;;;56.95;29.73;;;;;;;;;;6137216;28;20585;-71
2021/04/01 04:22:25;;;;;;;55.50;29.35;;;;;;;;;;6138083;28;20735;-71
2021/04/01 04:25:27;;;;;;;58.58;30.17;;;;;;;;;;6141088;28;20604;-71
2021/04/01 04:28:32;;;;;;;53.50;28.73;;;;;;;;;;6137964;28;20055;-71
2021/04/01 04:31:33;;;;;;;64.30;29.95;;;;;;;;;;6138476;28;20515;-71
2021/04/01 04:34:34;;;;;;;48.25;28.58;;;;;;;;;;6140550;28;20134;-71
2021/04/01 04:37:35;;;;;;;55.53;30.35;;;;;;;;;;6138628;28;20146;-71
2021/04/01 04:40:36;;;;;;;53.53;28.65;;;;;;;;;;6135521;28;20199;-72
2021/04/01 04:43:38;;;;;;;57.03;29.85;;;;;;;;;;6132616;28;20047;-71
2021/04/01 04:46:39;;;;;;;52.63;28.95;;;;;;;;;;6131431;28;20074;-70
2021/04/01 04:49:40;;;;;;;54.17;30.33;;;;;;;;;;6129439;28;20065;-71
2021/04/01 04:52:41;;;;;;;53.47;29.88;;;;;;;;;;6128412;28;20134;-71
2021/04/01 04:55:47;;;;;;;53.28;29.30;;;;;;;;;;6139351;28;20050;-71
2021/04/01 04:58:53;;;;;;;52.33;27.73;;;;;;;;;;6142391;28;20043;-71
2021/04/01 05:05:13;;;;;;;52.25;28.80;;;;;;;;;;6137469;28;20086;-71
2021/04/01 05:08:14;;;;;;;52.55;28.65;;;;;;;;;;6136408;28;20122;-71
2021/04/01 05:11:15;;;;;;;59.08;28.77;;;;;;;;;;6140702;28;20146;-71
2021/04/01 05:14:17;;;;;;;50.42;28.27;;;;;;;;;;6139976;28;20067;-71
2021/04/01 05:17:20;;;;;;;51.25;28.65;;;;;;;;;;6138350;28;20059;-71
2021/04/01 05:20:21;;;;;;;55.28;28.10;;;;;;;;;;6132843;28;20055;-71
2021/04/01 05:23:30;;;;;;;50.03;28.75;;;;;;;;;;6142245;28;20082;-71
2021/04/01 05:30:01;;;;;;;53.10;29.73;;;;;;;;;;6137889;28;20527;-71
2021/04/01 05:33:03;;;;;;;50.10;28.58;;;;;;;;;;6139980;28;20075;-71
2021/04/01 05:36:05;;;;;;;57.03;30.80;;;;;;;;;;6137905;28;20137;-71
2021/04/01 05:39:10;;;;;;;50.50;30.20;;;;;;;;;;6135861;28;20525;-69
2021/04/01 05:42:12;;;;;;;60.42;32.05;;;;;;;;;;6136830;28;20149;-69
2021/04/01 05:45:18;;;;;;;50.85;30.40;;;;;;;;;;6141134;28;20066;-70
2021/04/01 05:48:25;;;;;;;59.90;31.35;;;;;;;;;;6133633;28;20470;-69
2021/04/01 05:51:48;;;;;;;63.55;32.67;;;;;;;;;;6131775;28;20058;-70
2021/04/01 06:02:19;;;;;;;62.58;31.17;;;;;;;;;;6133482;28;20133;-70
2021/04/01 06:05:23;;;;;;;54.42;30.48;;;;;;;;;;6133353;28;20047;-71
2021/04/01 06:08:29;;;;;;;65.55;32.67;;;;;;;;;;6133016;28;20130;-70
2021/04/01 06:11:30;;;;;;;56.03;31.95;;;;;;;;;;6142091;28;20047;-70
2021/04/01 06:14:57;;;;;;;57.33;32.47;;;;;;;;;;6147825;28;20561;-70
2021/04/01 06:18:06;;;;;;;55.63;31.33;;;;;;;;;;6138256;28;20059;-71
2021/04/01 06:21:11;;;;;;;55.05;32.00;;;;;;;;;;6143086;28;20066;-70
2021/04/01 06:24:21;;;;;;;62.75;31.55;;;;;;;;;;6142401;28;20770;-70
2021/04/01 06:27:33;;;;;;;53.03;32.55;;;;;;;;;;6135746;28;20158;-70
2021/04/01 06:30:47;;;;;;;56.28;32.42;;;;;;;;;;6131667;28;20046;-70
2021/04/01 06:33:50;;;;;;;55.08;34.20;;;;;;;;;;6132882;28;20479;-70
2021/04/01 06:36:55;;;;;;;56.90;34.78;;;;;;;;;;6134686;28;20502;-72
2021/04/01 06:39:59;;;;;;;61.53;32.03;;;;;;;;;;6130373;28;20115;-70
2021/04/01 06:43:08;;;;;;;55.08;34.03;;;;;;;;;;6144998;28;21388;-70
2021/04/01 06:46:09;;;;;;;58.00;34.55;;;;;;;;;;6143963;28;20074;-71
2021/04/01 06:52:35;;;;;;;60.53;34.25;;;;;;;;;;6139091;28;20672;-70
2021/04/01 06:55:43;;;;;;;55.33;34.05;;;;;;;;;;6142721;28;20055;-69
2021/04/01 06:58:55;;;;;;;65.90;37.03;;;;;;;;;;6143511;28;20053;-70
2021/04/01 07:02:06;;;;;;;63.22;37.25;;;;;;;;;;6137617;28;20055;-69
2021/04/01 07:05:25;;;;;;;61.15;36.28;;;;;;;;;;6134622;28;20077;-70
2021/04/01 07:08:35;;;;;;;57.72;36.25;;;;;;;;;;6143987;28;20089;-70
2021/04/01 07:11:38;;;;;;;63.15;39.25;;;;;;;;;;6149714;28;20529;-69
2021/04/01 07:14:41;;;;;;;61.75;38.33;;;;;;;;;;6143562;28;20447;-71
2021/04/01 07:17:45;;;;;;;63.45;38.42;;;;;;;;;;6137354;28;20055;-70
2021/04/01 07:21:05;;;;;;;62.58;38.00;;;;;;;;;;6140212;28;20138;-69
2021/04/01 07:34:37;;;;;;;67.57;35.92;;;;;;;;;;6135880;28;20700;-71
2021/04/01 07:47:53;;;;;;;65.65;33.38;;;;;;;;;;6135099;28;20142;-71
2021/04/01 07:50:55;;;;;;;65.57;34.50;;;;;;;;;;6134097;28;20104;-69
2021/04/01 07:53:58;;;;;;;60.78;31.98;;;;;;;;;;6135052;28;20051;-70
2021/04/01 07:57:12;;;;;;;62.10;32.15;;;;;;;;;;6135390;28;20266;-71
2021/04/01 08:00:16;;;;;;;59.70;31.25;;;;;;;;;;6135808;28;20059;-71
2021/04/01 08:06:38;;;;;;;61.95;30.98;;;;;;;;;;6131645;28;20046;-72
2021/04/01 08:09:42;;;;;;;57.10;31.13;;;;;;;;;;6134909;28;20054;-70
2021/04/01 08:12:49;;;;;;;63.28;31.38;;;;;;;;;;6135973;28;20461;-72
2021/04/01 08:15:53;;;;;;;59.83;30.83;;;;;;;;;;6135468;28;20081;-73
2021/04/01 08:18:55;;;;;;;59.10;29.98;;;;;;;;;;6134552;28;20099;-72
2021/04/01 08:21:58;;;;;;;59.33;30.40;;;;;;;;;;6138353;28;20055;-72
2021/04/01 08:25:07;;;;;;;56.95;29.33;;;;;;;;;;6141581;28;20772;-71
2021/04/01 08:31:41;;;;;;;52.40;28.52;;;;;;;;;;6137806;28;20051;-72
2021/04/01 08:34:48;;;;;;;61.90;28.75;;;;;;;;;;6139950;28;20486;-71
2021/04/01 08:37:57;;;;;;;56.55;28.10;;;;;;;;;;6138446;28;20058;-72
2021/04/01 08:41:03;;;;;;;53.78;27.42;;;;;;;;;;6135929;28;20105;-72
2021/04/01 08:44:30;;;;;;;55.70;26.02;;;;;;;;;;6134621;28;20159;-71
2021/04/01 08:47:33;;;;;;;54.90;28.20;;;;;;;;;;6101730;28;20146;-71
2021/04/01 08:50:36;;;;;;;58.38;27.98;;;;;;;;;;6132678;28;20043;-73
2021/04/01 08:53:40;;;;;;;;;;;;;;;;;;6134246;28;20055;-70
2021/04/01 08:56:48;;;;;;;53.40;26.35;;;;;;;;;;6133591;28;20066;-70
2021/04/01 08:59:57;;;;;;;52.92;27.33;;;;;;;;;;6136336;28;20441;-70
2021/04/01 09:02:59;;;;;;;58.17;28.17;;;;;;;;;;6133463;28;20524;-70
2021/04/01 09:06:00;;;;;;;57.35;28.17;;;;;;;;;;6138740;28;20051;-70
2021/04/01 09:09:09;;;;;;;53.30;27.33;;;;;;;;;;6143365;28;20083;-70
2021/04/01 09:12:18;;;;;;;48.65;25.10;;;;;;;;;;6134978;28;20043;-70
2021/04/01 09:15:28;;;;;;;46.67;24.35;;;;;;;;;;6140556;28;20055;-71
2021/04/01 09:18:31;;;;;;;46.88;24.67;;;;;;;;;;6142487;28;20130;-70
2021/04/01 09:21:34;;;;;;;49.33;24.88;;;;;;;;;;6143195;28;20075;-70
2021/04/01 09:24:36;;;;;;;49.40;25.00;;;;;;;;;;6141444;28;20085;-72
2021/04/01 09:27:45;;;;;;;48.90;25.42;;;;;;;;;;6145658;28;20130;-72
2021/04/01 09:30:56;;;;;;;44.50;23.15;;;;;;;;;;6140946;28;20058;-72
2021/04/01 09:33:59;;;;;;;46.20;23.00;;;;;;;;;;6144075;28;20067;-72
2021/04/01 09:37:09;;;;;;;48.42;23.00;;;;;;;;;;6136331;28;20047;-72
2021/04/01 09:40:12;;;;;;;48.65;23.77;;;;;;;;;;6135889;28;20097;-71
2021/04/01 09:43:16;;;;;;;43.22;23.55;;;;;;;;;;6133791;28;20127;-72
2021/04/01 09:46:18;;;;;;;49.83;25.08;;;;;;;;;;6135948;28;20063;-73
2021/04/01 09:49:20;;;;;;;45.45;23.80;;;;;;;;;;6132805;28;20126;-70
2021/04/01 09:52:26;;;;;;;49.58;25.02;;;;;;;;;;6135371;28;20486;-71
2021/04/01 09:55:35;;;;;;;49.00;24.10;;;;;;;;;;6135095;28;20096;-72
2021/04/01 09:58:39;;;;;;;50.38;25.45;;;;;;;;;;6133244;28;20039;-70
2021/04/01 10:01:43;;;;;;;44.63;24.48;;;;;;;;;;6140945;28;20071;-71
2021/04/01 10:04:47;;;;;;;44.65;23.17;;;;;;;;;;6145806;28;20066;-72
2021/04/01 10:07:56;;;;;;;51.53;23.50;;;;;;;;;;6135352;28;20039;-68
2021/04/01 10:10:59;;;;;;;47.50;25.08;;;;;;;;;;6116808;28;20062;-72
2021/04/01 10:14:07;;;;;;;50.25;26.20;;;;;;;;;;6139365;28;20083;-71
2021/04/01 10:17:09;;;;;;;48.28;25.00;;;;;;;;;;6134553;28;20055;-71
2021/04/01 10:20:10;;;;;;;47.30;23.75;;;;;;;;;;6133818;28;20061;-69
2021/04/01 10:23:12;;;;;;;45.28;25.15;;;;;;;;;;6118345;28;20130;-73
2021/04/01 10:26:13;;;;;;;49.50;23.98;;;;;;;;;;6131315;28;20516;-70
2021/04/01 10:29:19;;;;;;;46.47;24.52;;;;;;;;;;6132523;28;20058;-70
2021/04/01 10:32:25;;;;;;;42.88;24.23;;;;;;;;;;6130956;28;20051;-69
2021/04/01 10:35:29;;;;;;;48.97;25.85;;;;;;;;;;6131252;28;20055;-72
2021/04/01 10:38:30;;;;;;;45.53;24.38;;;;;;;;;;6135830;28;20055;-71
2021/04/01 10:41:33;;;;;;;51.38;26.80;;;;;;;;;;6135489;28;20715;-70
2021/04/01 10:44:36;;;;;;;48.83;24.20;;;;;;;;;;6140612;28;20059;-73
2021/04/01 10:47:46;;;;;;;;;;;;;;;;;;6142393;28;20142;-71
2021/04/01 10:50:49;;;;;;;48.60;24.33;;;;;;;;;;6132130;28;20422;-73
2021/04/01 10:53:51;;;;;;;46.53;26.38;;;;;;;;;;6134072;28;20043;-74
2021/04/01 10:56:55;;;;;;;40.90;24.33;;;;;;;;;;6137904;28;20093;-72
2021/04/01 10:59:58;;;;;;;44.85;25.55;;;;;;;;;;6138899;28;20044;-72
2021/04/01 11:03:03;;;;;;;51.03;25.90;;;;;;;;;;6133905;28;20067;-72
2021/04/01 11:06:08;;;;;;;52.08;27.77;;;;;;;;;;6134670;28;20146;-72
2021/04/01 11:09:11;;;;;;;45.67;25.13;;;;;;;;;;6145099;28;20364;-73
2021/04/01 11:12:17;;;;;;;48.90;26.15;;;;;;;;;;6135755;28;20047;-71
2021/04/01 11:15:23;;;;;;;43.15;24.63;;;;;;;;;;6135110;28;20475;-71
2021/04/01 11:18:25;;;;;;;52.67;27.52;;;;;;;;;;6133619;28;20070;-72
2021/04/01 11:21:31;;;;;;;46.45;25.33;;;;;;;;;;6134005;28;20135;-73
2021/04/01 11:24:34;;;;;;;40.30;22.08;;;;;;;;;;6130256;28;20155;-71
2021/04/01 11:27:35;;;;;;;41.28;22.23;;;;;;;;;;6133452;28;20142;-71
2021/04/01 11:30:43;;;;;;;37.22;19.42;;;;;;;;;;6137692;28;20070;-71
2021/04/01 11:33:44;;;;;;;45.33;23.02;;;;;;;;;;6143191;28;20128;-71
2021/04/01 11:36:49;;;;;;;29.33;15.15;;;;;;;;;;6135007;28;20047;-71
2021/04/01 11:39:57;;;;;;;31.10;15.18;;;;;;;;;;6133918;28;20051;-71
2021/04/01 11:42:59;;;;;;;37.45;18.23;;;;;;;;;;6124965;28;20087;-72
2021/04/01 11:46:12;;;;;;;31.90;17.37;;;;;;;;;;6132473;28;20050;-71
2021/04/01 11:49:13;;;;;;;;;;;;;;;;;;6137054;28;21020;-71
2021/04/01 11:52:15;;;;;;;29.20;14.18;;;;;;;;;;6136933;28;20037;-68
2021/04/01 11:55:17;;;;;;;25.95;14.63;;;;;;;;;;6136818;28;20050;-70
2021/04/01 11:58:20;;;;;;;23.73;15.10;;;;;;;;;;6131883;28;20163;-71
2021/04/01 12:01:25;;;;;;;25.70;14.77;;;;;;;;;;6139974;28;21264;-71
2021/04/01 12:04:28;;;;;;;27.25;13.70;;;;;;;;;;6139769;28;20064;-69
2021/04/01 12:07:29;;;;;;;22.08;11.85;;;;;;;;;;6136849;28;20591;-71
2021/04/01 12:10:30;;;;;;;22.07;11.77;;;;;;;;;;6137662;28;20058;-71
2021/04/01 12:13:31;;;;;;;22.63;9.82;;;;;;;;;;6132831;28;20146;-71
2021/04/01 12:16:33;;;;;;;24.13;13.07;;;;;;;;;;6136712;28;20051;-68
2021/04/01 12:19:35;;;;;;;20.90;12.85;;;;;;;;;;6139333;28;20054;-70
2021/04/01 12:22:41;;;;;;;24.52;13.88;;;;;;;;;;6134892;28;20052;-71
2021/04/01 12:25:43;;;;;;;23.85;12.65;;;;;;;;;;6139329;28;20131;-72
2021/04/01 12:28:48;;;;;;;;;;;;;;;;;;6139819;28;20074;-68
2021/04/01 12:31:54;;;;;;;32.67;13.00;;;;;;;;;;6141209;28;20048;-71
2021/04/01 12:35:10;;;;;;;27.02;13.57;;;;;;;;;;6135887;28;20055;-69
2021/04/01 12:38:13;;;;;;;19.08;9.63;;;;;;;;;;6135454;28;20535;-71
2021/04/01 12:41:25;;;;;;;25.30;14.90;;;;;;;;;;6131530;28;20075;-71
2021/04/01 12:44:36;;;;;;;22.55;13.27;;;;;;;;;;6137956;28;20059;-71
2021/04/01 12:47:38;;;;;;;48.28;16.33;;;;;;;;;;6135767;28;20052;-72
2021/04/01 12:50:41;;;;;;;30.15;15.05;;;;;;;;;;6138356;28;20074;-72
2021/04/01 12:53:42;;;;;;;32.75;16.48;;;;;;;;;;6134750;28;20175;-72
2021/04/01 12:56:46;;;;;;;75.95;20.05;;;;;;;;;;6137800;28;20048;-72
2021/04/01 12:59:50;;;;;;;31.25;16.60;;;;;;;;;;6134570;28;20074;-71
2021/04/01 13:02:52;;;;;;;31.10;16.20;;;;;;;;;;6135213;28;20419;-72
2021/04/01 13:05:56;;;;;;;34.05;16.33;;;;;;;;;;6133299;28;20039;-71
2021/04/01 13:09:02;;;;;;;33.50;15.57;;;;;;;;;;6141417;28;20102;-72
2021/04/01 13:12:11;;;;;;;31.73;15.32;;;;;;;;;;6136635;28;20063;-72
2021/04/01 13:15:13;;;;;;;27.00;13.27;;;;;;;;;;6134235;28;20055;-73
2021/04/01 13:18:15;;;;;;;28.67;14.23;;;;;;;;;;6131514;28;20578;-72
2021/04/01 13:21:30;;;;;;;29.73;14.70;;;;;;;;;;6135883;28;20062;-71
2021/04/01 13:24:37;;;;;;;25.60;13.57;;;;;;;;;;6130359;28;20059;-71
2021/04/01 13:27:39;;;;;;;31.33;14.93;;;;;;;;;;6139681;28;20044;-73
2021/04/01 13:30:43;;;;;;;29.15;13.85;;;;;;;;;;6142187;28;20054;-70
2021/04/01 13:33:50;;;;;;;23.30;12.15;;;;;;;;;;6139046;28;20134;-74
2021/04/01 13:36:58;;;;;;;60.17;15.88;;;;;;;;;;6134121;28;20091;-72
2021/04/01 13:40:05;;;;;;;31.77;13.07;;;;;;;;;;6140305;28;20055;-72
2021/04/01 13:43:07;;;;;;;70.43;16.00;;;;;;;;;;6135189;28;20059;-71
2021/04/01 13:46:09;;;;;;;30.35;12.85;;;;;;;;;;6131161;28;20119;-73
2021/04/01 13:49:17;;;;;;;36.10;13.40;;;;;;;;;;6128783;28;20134;-71
2021/04/01 13:52:24;;;;;;;29.20;11.30;;;;;;;;;;6135696;28;20051;-72
2021/04/01 13:55:27;;;;;;;28.95;11.52;;;;;;;;;;6133076;28;20086;-71
2021/04/01 14:11:51;;;;;;;26.15;11.05;;;;;;;;;;6136994;28;20052;-71
2021/04/01 14:14:52;;;;;;;24.48;10.43;;;;;;;;;;6132307;28;20163;-72
2021/04/01 14:17:53;;;;;;;18.20;8.82;;;;;;;;;;6138698;28;20231;-71
2021/04/01 14:20:55;;;;;;;22.95;8.85;;;;;;;;;;6130841;28;20605;-71
2021/04/01 14:23:56;;;;;;;21.27;10.35;;;;;;;;;;6132157;28;20477;-71
2021/04/01 14:27:05;;;;;;;27.30;11.00;;;;;;;;;;6134315;28;20106;-72
2021/04/01 14:30:07;;;;;;;19.35;9.57;;;;;;;;;;6131893;28;20058;-72
2021/04/01 14:33:09;;;;;;;19.65;9.45;;;;;;;;;;6136902;28;20262;-71
2021/04/01 14:36:13;;;;;;;17.63;9.83;;;;;;;;;;6136906;28;20573;-71
2021/04/01 14:39:14;;;;;;;20.00;9.07;;;;;;;;;;6141371;28;20562;-71
2021/04/01 14:42:17;;;;;;;15.43;7.47;;;;;;;;;;6126175;28;20080;-70
2021/04/01 14:45:18;;;;;;;17.85;7.38;;;;;;;;;;6132141;28;20059;-70
2021/04/01 14:48:19;;;;;;;18.25;7.53;;;;;;;;;;6125187;28;20129;-70
2021/04/01 14:51:22;;;;;;;17.85;8.25;;;;;;;;;;6126851;28;20142;-71
2021/04/01 14:54:24;;;;;;;11.85;7.75;;;;;;;;;;6138252;28;20077;-72
2021/04/01 14:57:25;;;;;;;15.63;7.47;;;;;;;;;;6133234;28;20063;-72
2021/04/01 15:00:27;;;;;;;16.17;7.50;;;;;;;;;;6138482;28;20887;-71
2021/04/01 15:03:28;;;;;;;33.57;7.40;;;;;;;;;;6132376;28;20612;-71
2021/04/01 15:06:31;;;;;;;31.63;7.90;;;;;;;;;;6125105;28;20058;-74
2021/04/01 15:09:32;;;;;;;30.15;7.75;;;;;;;;;;6129483;28;20130;-73
2021/04/01 15:12:34;;;;;;;15.18;8.23;;;;;;;;;;6136422;28;20505;-72
2021/04/01 15:15:35;;;;;;;14.60;7.57;;;;;;;;;;6137696;28;20441;-73
2021/04/01 15:18:37;;;;;;;15.80;7.50;;;;;;;;;;6143958;28;20137;-73
2021/04/01 15:21:39;;;;;;;;;;;;;;;;;;6145164;28;20138;-71
2021/04/01 15:24:41;;;;;;;17.38;7.35;;;;;;;;;;6140351;28;19926;-72
2021/04/01 15:27:42;;;;;;;14.50;7.85;;;;;;;;;;6134645;28;20131;-73
2021/04/01 15:30:44;;;;;;;30.23;8.00;;;;;;;;;;6130640;28;20485;-72
2021/04/01 15:33:45;;;;;;;15.45;6.30;;;;;;;;;;6132730;28;20505;-71
2021/04/01 15:36:47;;;;;;;17.42;7.28;;;;;;;;;;6133455;28;20119;-73
2021/04/01 15:39:48;;;;;;;74.93;11.95;;;;;;;;;;6133013;28;20145;-73
2021/04/01 15:42:49;;;;;;;35.25;9.25;;;;;;;;;;6136010;28;20058;-73
2021/04/01 15:45:51;;;;;;;26.77;8.20;;;;;;;;;;6134648;28;20146;-70
2021/04/01 15:48:52;;;;;;;31.30;7.30;;;;;;;;;;6133430;28;20469;-69
2021/04/01 15:51:54;;;;;;;20.83;7.82;;;;;;;;;;6131176;28;20145;-72
2021/04/01 15:54:55;;;;;;;21.42;7.90;;;;;;;;;;6140997;28;20134;-72
2021/04/01 15:57:56;;;;;;;17.23;7.10;;;;;;;;;;6141307;28;20047;-72
2021/04/01 16:00:58;;;;;;;105.97;12.45;;;;;;;;;;6142866;28;20162;-71
2021/04/01 16:03:59;;;;;;;19.38;8.05;;;;;;;;;;6136299;28;20209;-71
2021/04/01 16:07:15;;;;;;;22.63;7.60;;;;;;;;;;6142853;28;20075;-76
2021/04/01 16:10:16;;;;;;;19.35;7.65;;;;;;;;;;6132370;28;20146;-74
2021/04/01 16:13:17;;;;;;;20.05;7.43;;;;;;;;;;6126221;28;20703;-75
2021/04/01 16:16:18;;;;;;;15.30;6.90;;;;;;;;;;6127266;28;20065;-73
2021/04/01 16:19:20;;;;;;;42.90;8.60;;;;;;;;;;6130208;28;20468;-70
2021/04/01 16:22:21;;;;;;;17.48;7.18;;;;;;;;;;6136240;28;20562;-72
2021/04/01 16:25:23;;;;;;;14.35;6.60;;;;;;;;;;6138900;28;20081;-75
2021/04/01 16:28:27;;;;;;;41.70;8.23;;;;;;;;;;6128696;28;20058;-72
2021/04/01 16:31:29;;;;;;;17.38;7.40;;;;;;;;;;6128854;28;20055;-70
2021/04/01 16:34:33;;;;;;;16.05;6.45;;;;;;;;;;6133189;28;20146;-70
2021/04/01 16:37:36;;;;;;;16.35;9.63;;;;;;;;;;6129517;28;20082;-70
2021/04/01 16:40:37;;;;;;;16.42;6.88;;;;;;;;;;6132923;28;20118;-70
2021/04/01 16:43:38;;;;;;;19.30;6.45;;;;;;;;;;6131637;28;20151;-70
2021/04/01 16:46:40;;;;;;;14.07;6.57;;;;;;;;;;6133217;28;20426;-70
2021/04/01 16:49:41;;;;;;;17.27;6.32;;;;;;;;;;6126355;28;20126;-71
2021/04/01 16:52:56;;;;;;;34.58;7.85;;;;;;;;;;6131162;28;20183;-72
2021/04/01 16:55:59;;;;;;;64.50;8.93;;;;;;;;;;6131153;28;20073;-70
2021/04/01 16:59:00;;;;;;;15.63;5.90;;;;;;;;;;6128124;28;20047;-70
2021/04/01 17:02:01;;;;;;;20.20;6.07;;;;;;;;;;6125231;28;20125;-70
2021/04/01 17:05:03;;;;;;;10.90;5.18;;;;;;;;;;6128507;28;20452;-71
2021/04/01 17:08:06;;;;;;;16.40;6.17;;;;;;;;;;6133732;28;20137;-71
2021/04/01 17:11:07;;;;;;;17.70;5.35;;;;;;;;;;6140592;28;20130;-70
2021/04/01 17:14:08;;;;;;;13.10;5.25;;;;;;;;;;6141679;28;20139;-74
2021/04/01 17:17:09;;;;;;;10.95;5.38;;;;;;;;;;6142046;28;20066;-72
2021/04/01 17:20:14;;;;;;;12.52;4.88;;;;;;;;;;6143800;28;20074;-70
2021/04/01 17:23:16;;;;;;;12.32;5.10;;;;;;;;;;6145937;28;20059;-71
2021/04/01 17:26:17;;;;;;;8.68;4.82;;;;;;;;;;6140858;28;20476;-71
2021/04/01 17:29:18;;;;;;;12.27;3.72;;;;;;;;;;6141542;28;20590;-71
2021/04/01 17:32:19;;;;;;;8.50;2.92;;;;;;;;;;6141938;28;20113;-71
2021/04/01 17:35:20;;;;;;;16.90;2.50;;;;;;;;;;6144357;28;20644;-71
2021/04/01 17:38:22;;;;;;;12.40;2.60;;;;;;;;;;6145837;28;20042;-72
2021/04/01 17:41:24;;;;;;;8.88;2.08;;;;;;;;;;6140382;28;20697;-67
2021/04/01 17:44:25;;;;;;;5.03;1.48;;;;;;;;;;6139577;28;20071;-70
2021/04/01 17:47:26;;;;;;;6.05;2.30;;;;;;;;;;6136769;28;20051;-70
2021/04/01 17:50:27;;;;;;;5.50;1.90;;;;;;;;;;6140398;28;20137;-71
2021/04/01 17:53:30;;;;;;;4.35;1.80;;;;;;;;;;6142489;28;20143;-69
2021/04/01 17:56:31;;;;;;;6.38;2.22;;;;;;;;;;6142114;28;20126;-70
2021/04/01 17:59:39;;;;;;;8.77;2.03;;;;;;;;;;6143391;28;20051;-70
2021/04/01 18:02:42;;;;;;;6.00;1.63;;;;;;;;;;6146817;28;20490;-70
2021/04/01 18:22:19;;;;;;;8.88;2.22;;;;;;;;;;6140051;28;20047;-68
2021/04/01 18:25:26;;;;;;;5.18;2.03;;;;;;;;;;6142967;28;20043;-68
2021/04/01 18:28:33;;;;;;;4.75;1.80;;;;;;;;;;6142693;28;20094;-69
2021/04/01 18:31:42;;;;;;;6.57;2.00;;;;;;;;;;6142764;28;20055;-70
2021/04/01 18:34:46;;;;;;;7.45;2.13;;;;;;;;;;6140313;28;20427;-69
2021/04/01 18:37:50;;;;;;;5.40;1.80;;;;;;;;;;6141571;28;20059;-70
2021/04/01 18:40:55;;;;;;;5.18;1.92;;;;;;;;;;6141986;28;20138;-71
2021/04/01 18:43:56;;;;;;;7.57;2.00;;;;;;;;;;6148235;28;20043;-74
2021/04/01 18:47:06;;;;;;;5.70;1.50;;;;;;;;;;6145197;28;20062;-70
2021/04/01 18:50:09;;;;;;;5.20;1.77;;;;;;;;;;6141039;28;20047;-71
2021/04/01 18:53:15;;;;;;;6.65;1.92;;;;;;;;;;6147319;28;20115;-72
2021/04/01 18:56:20;;;;;;;5.53;1.92;;;;;;;;;;6141828;28;20046;-70
2021/04/01 18:59:23;;;;;;;4.65;1.65;;;;;;;;;;6142090;28;20074;-71
2021/04/01 19:02:24;;;;;;;7.50;2.60;;;;;;;;;;6140243;28;20051;-71
2021/04/01 19:05:28;;;;;;;7.30;2.35;;;;;;;;;;6139026;28;20066;-73
2021/04/01 19:08:36;;;;;;;6.45;2.40;;;;;;;;;;6140133;28;20051;-73
2021/04/01 19:21:37;;;;;;;3.80;1.92;;;;;;;;;;6131706;28;20055;-69
2021/04/01 19:24:40;;;;;;;5.47;2.00;;;;;;;;;;6137939;28;20054;-70
2021/04/01 19:27:43;;;;;;;5.72;1.70;;;;;;;;;;6147860;28;20042;-69